Aérodrome :
LOGIN :

S'inscrire | Disclaimer

   EN    FR    IT 

 










Légende :    VFR   VFR Marginal   IFR   IFR Intensif   IFR Très Intensif
Visi : 
Plafond : 
>= 8 km
>= 3000ft
5 à 8 km
1000 à 3000 ft
1500m à 5 km
500 à 1000 ft
800 à 1500m
200 à 500 ft
< 800m
< 200 ft
Symboles :   Orages  Brouillard  Fortes neiges  Fortes précipitations  Vent > 20 kt
SIGMETs :   Divers  Orages  Givrage  Turbulence  Onde Orograph.  Cendres Volcan.







- Altitude de l'aérodrome : 580 ft
- Voir les cartes d'approche


LFOA - Avord

DERNIER METAR :
  • 181930Z AUTO 15004KT CAVOK 07/03 Q1013 BECMG 22015G25KT 4000 -RA

METARs EXPIRÉS :
  • 181900Z AUTO 14006KT CAVOK 08/03 Q1013 NOSIG
  • 181830Z AUTO 13008KT CAVOK 07/03 Q1013 NOSIG
  • 181800Z AUTO 13009KT CAVOK 07/03 Q1012 NOSIG
  • 181730Z AUTO 13009KT CAVOK 07/02 Q1012 NOSIG
  • 181700Z AUTO 13008KT CAVOK 07/02 Q1013 NOSIG

TAF TAF LFOA
Valide du 18 à 15h jusqu'au 19 à 15h UTC


181400Z 1815/1915 14010KT CAVOK
TEMPO 1815/1818 14010G20KT
BECMG 1821/1823 22015G25KT 4000 -RA BKN040
BECMG 1900/1902 21010KT 8000 NSW
PROB40
TEMPO 1902/1909 4000 -RA BKN012 BKN030
TEMPO 1910/1915 25015G25KT 4000 SHRA BKN015 BKN030CB
Pas de NOTAMs connus pour ce terrain.



MET'MAP, la Météo Aéronautique d'un coup d'oeil ! - Copyright ORBIFLY Décembre 2007 - Disclaimer

ORBIFLY MET'MAP TEAM :

Programmation & Développement : Alexandra Zaïnal
Conception & Développement : Baudouin d'Aumeries
Co-Programmation & Développement : Marc-Olivier Méhu
Soutien technique & logistique : Manuel Goepfert

Contact : metmap@orbifly.com




SOURCES & CREDITS :

   NOAA